Time;durP1;ratioP1;P1;durP2;ratioP2;P2;SDS_P1;SDS_P2;PMS_P1;PMS_P2;Temp;Humidity;BMP_temperature;BMP_pressure;BME280_temperature;BME280_humidity;BME280_pressure;Samples;Min_cycle;Max_cycle;Signal;HPM_P1;HPM_P2
2021/11/01 00:01:08;;;;;;;4.75;1.17;;;10.90;99.90;;;;;;4992205;28;20111;-75
2021/11/01 00:03:35;;;;;;;8.10;1.58;;;10.90;99.90;;;;;;4987627;28;20320;-75
2021/11/01 00:06:02;;;;;;;12.85;1.30;;;10.90;99.90;;;;;;5025665;28;20072;-75
2021/11/01 00:08:30;;;;;;;7.00;1.38;;;10.90;99.90;;;;;;5025192;28;20088;-75
2021/11/01 00:10:56;;;;;;;9.93;1.70;;;10.80;99.90;;;;;;5018098;28;20053;-74
2021/11/01 00:13:23;;;;;;;7.93;1.42;;;10.80;99.90;;;;;;5006943;28;20115;-73
2021/11/01 00:15:50;;;;;;;8.55;1.58;;;10.80;99.90;;;;;;5006257;28;20061;-74
2021/11/01 00:18:17;;;;;;;6.93;1.08;;;10.80;99.90;;;;;;5007413;28;20054;-75
2021/11/01 00:20:44;;;;;;;6.53;1.60;;;10.90;99.90;;;;;;5005585;28;20500;-74
2021/11/01 00:23:11;;;;;;;6.03;2.42;;;10.90;99.90;;;;;;5006842;28;20054;-76
2021/11/01 00:25:37;;;;;;;12.38;2.47;;;10.90;99.90;;;;;;5019907;28;20518;-76
2021/11/01 00:28:05;;;;;;;14.60;2.03;;;10.90;99.90;;;;;;5025605;28;20061;-76
2021/11/01 00:30:32;;;;;;;6.30;1.40;;;10.80;99.90;;;;;;5042626;28;20131;-75
2021/11/01 00:32:59;;;;;;;11.52;1.63;;;10.80;99.90;;;;;;5015492;28;20125;-74
2021/11/01 00:35:25;;;;;;;6.35;1.30;;;10.80;99.90;;;;;;5026706;28;20088;-75
2021/11/01 00:37:52;;;;;;;10.52;2.17;;;10.80;99.90;;;;;;5058263;28;20053;-76
2021/11/01 00:40:19;;;;;;;12.73;1.35;;;10.80;99.90;;;;;;5023274;28;20045;-75
2021/11/01 00:42:46;;;;;;;9.15;1.30;;;10.80;99.90;;;;;;5027069;28;20488;-75
2021/11/01 00:45:13;;;;;;;3.22;1.35;;;10.80;99.90;;;;;;5026870;28;20107;-75
2021/11/01 00:47:39;;;;;;;5.97;1.50;;;10.70;99.90;;;;;;5024439;28;20056;-75
2021/11/01 00:50:07;;;;;;;10.35;1.30;;;10.60;99.90;;;;;;5025497;28;20119;-74
2021/11/01 00:52:34;;;;;;;12.30;1.55;;;10.50;99.90;;;;;;5027154;28;20053;-74
2021/11/01 00:55:03;;;;;;;8.45;1.52;;;10.50;99.90;;;;;;5027351;28;20055;-75
2021/11/01 00:57:31;;;;;;;11.50;1.73;;;10.50;99.90;;;;;;5021282;28;20038;-75
2021/11/01 00:59:59;;;;;;;10.25;1.63;;;10.50;99.90;;;;;;4998839;28;20052;-76
2021/11/01 01:02:29;;;;;;;8.93;2.70;;;10.60;99.90;;;;;;5001047;28;20136;-77
2021/11/01 01:04:56;;;;;;;12.65;1.73;;;10.60;99.90;;;;;;5007578;28;20153;-75
2021/11/01 01:07:27;;;;;;;8.13;1.75;;;10.50;99.90;;;;;;5005698;28;20058;-74
2021/11/01 01:09:54;;;;;;;9.75;1.88;;;10.60;99.90;;;;;;4995555;28;20112;-75
2021/11/01 01:12:21;;;;;;;9.38;1.77;;;10.60;99.90;;;;;;5019961;28;20056;-75
2021/11/01 01:14:58;;;;;;;10.45;2.25;;;10.60;99.90;;;;;;5026380;28;20475;-77
2021/11/01 01:17:26;;;;;;;10.38;1.75;;;10.60;99.90;;;;;;5015512;28;20050;-75
2021/11/01 01:20:06;;;;;;;15.43;2.63;;;10.60;99.90;;;;;;5004531;28;20077;-74
2021/11/01 01:22:33;;;;;;;10.55;1.75;;;10.70;99.90;;;;;;5026683;28;20514;-75
2021/11/01 01:25:10;;;;;;;13.77;1.88;;;10.80;99.90;;;;;;5009055;28;20045;-76
2021/11/01 01:27:39;;;;;;;13.38;1.85;;;10.80;99.90;;;;;;5025235;28;20551;-77
2021/11/01 01:30:07;;;;;;;15.73;2.80;;;10.70;99.90;;;;;;5008180;28;20061;-76
2021/11/01 01:32:34;;;;;;;18.63;2.92;;;10.60;99.90;;;;;;5025409;28;20053;-76
2021/11/01 01:35:01;;;;;;;18.20;2.28;;;10.50;99.90;;;;;;5024097;28;20049;-75
2021/11/01 01:37:27;;;;;;;13.82;1.73;;;10.50;99.90;;;;;;4987982;28;20053;-75
2021/11/01 01:39:54;;;;;;;11.70;1.67;;;10.50;99.90;;;;;;4998660;28;20194;-76
2021/11/01 01:42:21;;;;;;;13.43;2.92;;;10.40;99.90;;;;;;5000326;28;20519;-75
2021/11/01 01:44:48;;;;;;;10.52;2.10;;;10.40;99.90;;;;;;5004999;28;20046;-74
2021/11/01 01:47:14;;;;;;;14.35;2.35;;;10.40;99.90;;;;;;5004827;28;20046;-75
2021/11/01 01:49:41;;;;;;;15.88;2.22;;;10.30;99.90;;;;;;5004494;28;20504;-75
2021/11/01 01:52:09;;;;;;;20.90;2.85;;;10.30;99.90;;;;;;4987927;28;20057;-75
2021/11/01 01:54:36;;;;;;;19.08;2.33;;;10.30;99.90;;;;;;5006369;28;20058;-75
2021/11/01 01:57:04;;;;;;;15.32;2.90;;;10.30;99.90;;;;;;5004618;28;20160;-74
2021/11/01 01:59:31;;;;;;;17.08;2.97;;;10.30;99.90;;;;;;5005380;28;20073;-76
2021/11/01 02:01:58;;;;;;;15.93;1.83;;;10.30;99.90;;;;;;5003828;28;20360;-75
2021/11/01 02:04:27;;;;;;;12.43;1.88;;;10.30;99.90;;;;;;5041068;28;20300;-76
2021/11/01 02:07:01;;;;;;;16.50;2.30;;;10.20;99.90;;;;;;5021464;28;20138;-75
2021/11/01 02:09:36;;;;;;;15.85;2.72;;;10.20;99.90;;;;;;5022046;28;20061;-75
2021/11/01 02:12:06;;;;;;;14.30;2.33;;;10.10;99.90;;;;;;5023076;28;20141;-75
2021/11/01 02:14:42;;;;;;;13.63;2.65;;;10.00;99.90;;;;;;4991434;28;20053;-76
2021/11/01 02:17:09;;;;;;;15.95;2.47;;;10.00;99.90;;;;;;5024222;28;20484;-75
2021/11/01 02:19:46;;;;;;;16.50;2.60;;;9.90;99.90;;;;;;5023501;28;20111;-76
2021/11/01 02:22:32;;;;;;;15.38;2.83;;;9.90;99.90;;;;;;4989644;28;20532;-75
2021/11/01 02:25:04;;;;;;;16.63;3.13;;;9.90;99.90;;;;;;5001486;28;20276;-75
2021/11/01 02:27:34;;;;;;;20.08;3.03;;;9.90;99.90;;;;;;4993994;28;20120;-77
2021/11/01 02:30:02;;;;;;;19.60;3.33;;;9.90;99.90;;;;;;5017882;28;20091;-75
2021/11/01 02:32:30;;;;;;;16.67;2.92;;;9.90;99.90;;;;;;5026088;28;20107;-75
2021/11/01 02:34:57;;;;;;;19.40;2.58;;;10.00;99.90;;;;;;5010968;28;20037;-75
2021/11/01 02:37:24;;;;;;;16.52;2.90;;;10.00;99.90;;;;;;5025662;28;20092;-77
2021/11/01 02:39:55;;;;;;;21.60;3.13;;;10.00;99.90;;;;;;5005569;28;20038;-75
2021/11/01 02:42:25;;;;;;;23.42;3.90;;;10.00;99.90;;;;;;5008926;28;20054;-76
2021/11/01 02:45:01;;;;;;;21.60;3.65;;;10.00;99.90;;;;;;5048312;28;20056;-77
2021/11/01 02:47:29;;;;;;;15.50;3.38;;;10.00;99.90;;;;;;5047355;28;20083;-76
2021/11/01 02:49:59;;;;;;;13.75;3.05;;;10.00;99.90;;;;;;5050070;28;20469;-75
2021/11/01 02:52:28;;;;;;;14.88;3.08;;;10.10;99.90;;;;;;5040079;28;20508;-75
2021/11/01 02:54:56;;;;;;;17.85;3.08;;;10.10;99.90;;;;;;5030070;28;20466;-75
2021/11/01 02:57:24;;;;;;;11.95;2.70;;;10.10;99.90;;;;;;5027390;28;20535;-75
2021/11/01 02:59:51;;;;;;;15.10;2.55;;;10.10;99.90;;;;;;5027922;28;20445;-76
2021/11/01 03:02:18;;;;;;;14.07;2.95;;;10.10;99.90;;;;;;5009260;28;20054;-75
2021/11/01 03:04:46;;;;;;;22.75;4.05;;;10.20;99.90;;;;;;4988834;28;20046;-75
2021/11/01 03:07:14;;;;;;;17.77;2.92;;;10.10;99.90;;;;;;4988946;28;20105;-74
2021/11/01 03:09:45;;;;;;;17.75;3.13;;;10.20;99.90;;;;;;4982371;28;20196;-76
2021/11/01 03:12:14;;;;;;;9.25;2.53;;;10.20;99.90;;;;;;5005630;28;20080;-72
2021/11/01 03:14:48;;;;;;;15.57;2.67;;;10.10;99.90;;;;;;5002561;28;20111;-72
2021/11/01 03:17:18;;;;;;;15.18;2.80;;;10.10;99.90;;;;;;5043792;28;20069;-73
2021/11/01 03:20:01;;;;;;;12.85;2.67;;;10.00;99.90;;;;;;5030900;28;20115;-71
2021/11/01 03:22:38;;;;;;;11.27;2.72;;;10.00;99.90;;;;;;5029103;28;20053;-72
2021/11/01 03:25:19;;;;;;;13.20;3.25;;;10.00;99.90;;;;;;4996067;28;20053;-74
2021/11/01 03:27:49;;;;;;;10.52;2.45;;;9.90;99.90;;;;;;5014254;28;20046;-72
2021/11/01 03:30:17;;;;;;;13.75;2.30;;;10.00;99.90;;;;;;5029741;28;20506;-72
2021/11/01 03:32:45;;;;;;;10.60;2.67;;;10.00;99.90;;;;;;5011941;28;20058;-71
2021/11/01 03:35:13;;;;;;;9.48;2.08;;;10.00;99.90;;;;;;4993034;28;20085;-73
2021/11/01 03:37:42;;;;;;;11.70;3.17;;;10.00;99.90;;;;;;5010510;28;20300;-73
2021/11/01 03:40:13;;;;;;;13.88;3.38;;;9.90;99.90;;;;;;5000643;28;20046;-73
2021/11/01 03:42:41;;;;;;;9.23;2.45;;;9.90;99.90;;;;;;5008625;28;20057;-73
2021/11/01 03:45:10;;;;;;;14.88;3.15;;;9.90;99.90;;;;;;5010399;28;20062;-73
2021/11/01 03:47:49;;;;;;;18.75;2.83;;;9.90;99.90;;;;;;5009286;28;20559;-71
2021/11/01 03:52:54;;;;;;;15.13;3.85;;;9.90;99.90;;;;;;5010798;28;20141;-73
2021/11/01 03:55:23;;;;;;;9.73;2.95;;;9.90;99.90;;;;;;5009058;28;20053;-71
2021/11/01 03:57:51;;;;;;;13.77;2.92;;;9.90;99.90;;;;;;5009259;28;20046;-73
2021/11/01 04:00:19;;;;;;;19.92;3.80;;;9.90;99.90;;;;;;5009241;28;20052;-73
2021/11/01 04:02:47;;;;;;;16.70;3.17;;;9.90;99.90;;;;;;5019335;28;20326;-74
2021/11/01 04:05:14;;;;;;;20.08;3.60;;;9.90;99.90;;;;;;5027393;28;20052;-72
2021/11/01 04:07:40;;;;;;;12.52;3.85;;;9.90;99.90;;;;;;5009649;28;20550;-74
2021/11/01 04:10:09;;;;;;;22.95;3.08;;;9.90;99.90;;;;;;5008819;28;20140;-72
2021/11/01 04:12:36;;;;;;;11.95;2.85;;;9.90;99.90;;;;;;4996824;28;20058;-73
2021/11/01 04:15:09;;;;;;;16.38;2.88;;;9.90;99.90;;;;;;4988609;28;20112;-72
2021/11/01 04:17:46;;;;;;;10.63;2.90;;;9.90;99.90;;;;;;5024174;28;20091;-74
2021/11/01 04:22:49;;;;;;;12.07;4.03;;;9.90;99.90;;;;;;5026782;28;20062;-73
2021/11/01 04:25:18;;;;;;;15.50;3.78;;;9.90;99.90;;;;;;5008771;28;20057;-72
2021/11/01 04:27:46;;;;;;;12.52;2.90;;;9.90;99.90;;;;;;5024771;28;20135;-72
2021/11/01 04:30:14;;;;;;;12.90;3.67;;;9.90;99.90;;;;;;5022083;28;20053;-73
2021/11/01 04:32:42;;;;;;;16.08;3.55;;;9.90;99.90;;;;;;5010757;28;20057;-70
2021/11/01 04:35:25;;;;;;;16.65;3.08;;;9.90;99.90;;;;;;5024780;28;20140;-72
2021/11/01 04:38:01;;;;;;;15.05;2.92;;;9.90;99.90;;;;;;4996171;28;20092;-71
2021/11/01 04:43:20;;;;;;;14.95;3.20;;;9.80;99.90;;;;;;5004535;28;20053;-72
2021/11/01 04:54:05;;;;;;;15.65;3.17;;;9.70;99.90;;;;;;5025749;28;20115;-74
2021/11/01 04:56:32;;;;;;;10.30;3.22;;;9.70;99.90;;;;;;5003747;28;20099;-74
2021/11/01 04:58:59;;;;;;;14.05;3.60;;;9.70;99.90;;;;;;5024540;28;20068;-73
2021/11/01 05:01:35;;;;;;;11.50;2.47;;;9.80;99.90;;;;;;5025427;28;20176;-73
2021/11/01 05:04:06;;;;;;;13.10;3.03;;;9.80;99.90;;;;;;5024840;28;20054;-74
2021/11/01 05:06:35;;;;;;;13.95;2.63;;;9.80;99.90;;;;;;5024182;28;20123;-73
2021/11/01 05:09:07;;;;;;;10.75;2.60;;;9.80;99.90;;;;;;5025240;28;20570;-71
2021/11/01 05:11:42;;;;;;;20.27;3.60;;;9.80;99.90;;;;;;5034241;28;20359;-71
2021/11/01 05:14:13;;;;;;;21.42;4.15;;;9.80;99.90;;;;;;5026710;28;20068;-73
2021/11/01 05:16:55;;;;;;;16.98;3.83;;;9.80;99.90;;;;;;5024766;28;20324;-73
2021/11/01 05:19:26;;;;;;;25.00;5.93;;;9.80;99.90;;;;;;5018998;28;20096;-72
2021/11/01 05:22:12;;;;;;;13.57;4.55;;;9.80;99.90;;;;;;5005131;28;20049;-73
2021/11/01 05:25:02;;;;;;;18.17;3.58;;;9.80;99.90;;;;;;5037245;28;20058;-72
2021/11/01 05:30:39;;;;;;;16.42;3.83;;;9.70;99.90;;;;;;5015689;28;20054;-72
2021/11/01 05:33:51;;;;;;;14.88;4.20;;;9.60;99.90;;;;;;5022416;28;20514;-73
2021/11/01 05:35:50;;;;;;;12.80;2.65;;;9.50;99.90;;;;;;5014908;28;20225;-73
2021/11/01 05:38:16;;;;;;;12.73;3.40;;;9.50;99.90;;;;;;5023472;28;20095;-72
2021/11/01 05:40:44;;;;;;;22.08;3.42;;;9.40;99.90;;;;;;5030773;28;20064;-72
2021/11/01 05:43:11;;;;;;;14.45;4.45;;;9.40;99.90;;;;;;5037202;28;20061;-72
2021/11/01 05:45:38;;;;;;;12.95;3.45;;;9.30;99.90;;;;;;4987548;28;20147;-73
2021/11/01 05:48:05;;;;;;;11.15;3.70;;;9.30;99.90;;;;;;5009448;28;20060;-72
2021/11/01 05:50:35;;;;;;;17.58;5.60;;;9.30;99.90;;;;;;5004208;28;20064;-73
2021/11/01 05:53:05;;;;;;;13.13;5.18;;;9.30;99.90;;;;;;5005299;28;20687;-73
2021/11/01 06:03:13;;;;;;;11.15;3.88;;;9.30;99.90;;;;;;5024080;28;20053;-73
2021/11/01 06:08:28;;;;;;;15.10;3.72;;;9.30;99.90;;;;;;5024389;28;20061;-73
2021/11/01 06:13:26;;;;;;;12.57;2.40;;;9.20;99.90;;;;;;5010675;28;20054;-72
2021/11/01 06:13:41;;;;;;;11.70;3.33;;;9.20;99.90;;;;;;5017053;28;20137;-72
2021/11/01 06:16:09;;;;;;;7.22;2.30;;;9.20;99.90;;;;;;5018041;28;20064;-73
2021/11/01 06:18:35;;;;;;;11.57;3.97;;;9.20;99.90;;;;;;5018784;28;20408;-73
2021/11/01 06:21:08;;;;;;;11.43;3.40;;;9.20;99.90;;;;;;5023142;28;20048;-73
2021/11/01 06:23:36;;;;;;;13.10;3.35;;;9.20;99.90;;;;;;5007029;28;20491;-72
2021/11/01 06:26:04;;;;;;;17.60;3.20;;;9.10;99.90;;;;;;5024032;28;20119;-73
2021/11/01 06:28:32;;;;;;;8.75;2.53;;;9.10;99.90;;;;;;5024438;28;20522;-73
2021/11/01 06:31:03;;;;;;;12.63;2.70;;;9.10;99.90;;;;;;5018203;28;20057;-74
2021/11/01 06:41:44;;;;;;;10.95;2.20;;;9.00;99.90;;;;;;5049899;28;19925;-74
2021/11/01 07:16:58;;;;;;;16.02;3.15;;;9.20;99.90;;;;;;5015467;28;20045;-74
2021/11/01 07:19:33;;;;;;;13.15;3.08;;;9.20;99.90;;;;;;5042581;28;20103;-74
2021/11/01 07:38:44;;;;;;;13.48;3.63;;;9.30;99.90;;;;;;5046535;28;19929;-74
2021/11/01 08:26:01;;;;;;;18.35;3.60;;;9.70;99.90;;;;;;5003001;28;20079;-72
2021/11/01 08:28:52;;;;;;;14.85;3.15;;;9.70;99.90;;;;;;5031537;28;20037;-72
2021/11/01 08:37:22;;;;;;;7.00;2.65;;;9.90;99.90;;;;;;5029623;28;20050;-74
2021/11/01 08:39:48;;;;;;;11.93;2.38;;;10.00;99.90;;;;;;5042053;28;20132;-73
2021/11/01 08:45:09;;;;;;;6.97;2.13;;;10.00;99.90;;;;;;5046290;28;20044;-73
2021/11/01 09:04:38;;;;;;;8.98;2.33;;;10.20;99.90;;;;;;5026536;28;20053;-74
2021/11/01 09:20:17;;;;;;;;;;;11.00;99.90;;;;;;5048708;28;19924;-74
2021/11/01 09:23:07;;;;;;;6.63;3.60;;;11.30;99.90;;;;;;5028045;28;19924;-79
2021/11/01 09:28:15;;;;;;;8.18;3.53;;;11.40;99.90;;;;;;5026011;28;20057;-75
2021/11/01 09:38:58;;;;;;;;;;;11.20;99.90;;;;;;5023607;28;20053;-75
2021/11/01 09:41:26;;;;;;;11.05;4.13;;;11.20;99.90;;;;;;5025351;28;19971;-77
2021/11/01 09:44:00;;;;;;;5.53;4.18;;;11.20;99.90;;;;;;4998703;28;20133;-75
2021/11/01 09:46:29;;;;;;;7.10;3.70;;;11.20;99.90;;;;;;5016893;28;20130;-76
2021/11/01 09:51:54;;;;;;;4.90;3.45;;;11.20;99.90;;;;;;5015372;28;20057;-76
2021/11/01 09:54:25;;;;;;;6.32;4.00;;;11.30;99.90;;;;;;5023651;28;20049;-74
2021/11/01 09:57:02;;;;;;;6.20;3.50;;;11.30;99.90;;;;;;5018204;28;20170;-75
2021/11/01 09:59:35;;;;;;;9.60;3.60;;;11.30;99.90;;;;;;5017562;28;20053;-75
2021/11/01 10:02:08;;;;;;;8.00;3.97;;;11.20;99.90;;;;;;5024156;28;20611;-75
2021/11/01 10:04:36;;;;;;;8.55;3.70;;;11.30;99.90;;;;;;5023902;28;20099;-75
2021/11/01 10:07:19;;;;;;;7.50;3.88;;;11.20;99.90;;;;;;5023705;28;20404;-75
2021/11/01 10:09:51;;;;;;;8.98;3.53;;;11.30;99.90;;;;;;5007645;28;20207;-76
2021/11/01 10:12:21;;;;;;;6.97;3.75;;;11.30;99.90;;;;;;5023537;28;20046;-75
2021/11/01 10:15:01;;;;;;;8.10;4.65;;;11.40;99.90;;;;;;5024467;28;20061;-79
2021/11/01 10:17:35;;;;;;;13.73;4.35;;;11.50;99.90;;;;;;5023329;28;20527;-78
2021/11/01 10:20:19;;;;;;;8.70;4.32;;;11.60;99.90;;;;;;5025323;28;20056;-77
2021/11/01 10:22:47;;;;;;;;;;;11.80;99.90;;;;;;5041293;28;20144;-76
2021/11/01 10:25:17;;;;;;;9.80;4.63;;;11.90;99.90;;;;;;5055958;28;20044;-77
2021/11/01 10:27:52;;;;;;;10.07;5.10;;;12.10;99.90;;;;;;4988924;28;20049;-76
2021/11/01 10:30:37;;;;;;;9.88;5.63;;;12.10;99.90;;;;;;5020128;28;20050;-76
2021/11/01 10:33:06;;;;;;;11.85;5.20;;;12.10;99.90;;;;;;5007801;28;20050;-75
2021/11/01 10:35:37;;;;;;;6.35;5.60;;;12.20;99.90;;;;;;5023881;28;20056;-75
2021/11/01 10:41:40;;;;;;;7.07;5.13;;;12.20;99.90;;;;;;5023997;28;20053;-78
2021/11/01 11:14:29;;;;;;;6.88;6.00;;;12.80;99.90;;;;;;5025980;28;20056;-76
2021/11/01 11:22:29;;;;;;;10.60;5.80;;;12.60;99.90;;;;;;5005271;28;20057;-76
2021/11/01 11:27:47;;;;;;;6.68;6.00;;;12.40;99.90;;;;;;5025489;28;20049;-75
2021/11/01 11:39:16;;;;;;;6.68;6.18;;;12.60;99.90;;;;;;5045806;28;20089;-77
2021/11/01 11:47:57;;;;;;;7.03;6.43;;;12.80;99.90;;;;;;4990506;28;20725;-75
2021/11/01 11:50:29;;;;;;;8.38;7.25;;;12.90;99.90;;;;;;5022861;28;20273;-76
2021/11/01 11:53:14;;;;;;;7.90;7.18;;;13.00;99.90;;;;;;5007017;28;20484;-76
2021/11/01 11:55:43;;;;;;;8.27;7.50;;;13.00;99.90;;;;;;5028684;28;20100;-77
2021/11/01 11:58:13;;;;;;;11.32;7.90;;;13.00;99.90;;;;;;5009993;28;20334;-77
2021/11/01 12:00:41;;;;;;;9.55;7.90;;;13.10;99.90;;;;;;5028506;28;20058;-77
2021/11/01 12:03:12;;;;;;;9.60;8.80;;;13.20;99.90;;;;;;5027804;28;20084;-77
2021/11/01 12:05:46;;;;;;;8.48;7.68;;;13.20;99.90;;;;;;5027820;28;20048;-78
2021/11/01 12:17:07;;;;;;;9.75;9.05;;;13.40;99.90;;;;;;5025195;28;20140;-76
2021/11/01 12:19:16;;;;;;;9.40;8.60;;;13.40;99.90;;;;;;5019109;28;20057;-77
2021/11/01 12:21:46;;;;;;;8.77;8.00;;;13.20;99.90;;;;;;5025417;28;20249;-76
2021/11/01 12:24:21;;;;;;;8.90;8.07;;;13.30;99.90;;;;;;5011054;28;20054;-76
2021/11/01 12:27:08;;;;;;;9.32;8.73;;;13.40;99.90;;;;;;5013378;28;20060;-78
2021/11/01 12:29:35;;;;;;;9.15;8.48;;;13.50;99.90;;;;;;5025162;28;20530;-76
2021/11/01 12:32:10;;;;;;;10.55;9.65;;;13.40;99.90;;;;;;5026630;28;20050;-78
2021/11/01 12:34:49;;;;;;;9.90;9.15;;;13.40;99.90;;;;;;5028634;28;20302;-76
2021/11/01 12:37:24;;;;;;;9.55;8.88;;;13.50;99.90;;;;;;5060859;28;20053;-77
2021/11/01 12:40:35;;;;;;;10.90;9.88;;;13.40;99.90;;;;;;5026683;28;20499;-77
2021/11/01 12:49:03;;;;;;;12.75;11.52;;;13.30;99.90;;;;;;5032557;28;20463;-77
2021/11/01 12:56:59;;;;;;;10.07;9.48;;;13.40;99.90;;;;;;4973938;28;20049;-76
2021/11/01 12:57:27;;;;;;;9.73;9.13;;;13.50;99.90;;;;;;5025457;28;20569;-77
2021/11/01 12:59:55;;;;;;;9.95;9.15;;;13.50;99.90;;;;;;5008794;28;20587;-78
2021/11/01 13:02:29;;;;;;;9.52;8.95;;;13.50;99.90;;;;;;5025835;28;20045;-76
2021/11/01 13:05:00;;;;;;;10.10;9.40;;;13.60;99.90;;;;;;5049693;28;20052;-76
2021/11/01 13:20:29;;;;;;;11.82;11.00;;;13.60;99.90;;;;;;4994898;28;20327;-76
2021/11/01 13:23:00;;;;;;;11.07;10.55;;;13.70;99.90;;;;;;4993808;28;20630;-77
2021/11/01 13:28:48;;;;;;;10.52;9.75;;;13.60;99.90;;;;;;5027646;28;20049;-77
2021/11/01 13:36:51;;;;;;;12.43;10.90;;;13.30;99.90;;;;;;5023852;28;20069;-75
2021/11/01 13:39:26;;;;;;;10.00;9.40;;;13.00;99.90;;;;;;5006420;28;20050;-77
2021/11/01 13:41:54;;;;;;;10.63;9.93;;;12.90;99.90;;;;;;5024344;28;20483;-76
2021/11/01 13:44:23;;;;;;;10.50;9.70;;;12.80;99.90;;;;;;5026460;28;20057;-78
2021/11/01 13:46:52;;;;;;;10.25;9.60;;;12.80;99.90;;;;;;5023760;28;20045;-77
2021/11/01 13:49:20;;;;;;;10.93;10.13;;;12.70;99.90;;;;;;5028225;28;20088;-78
2021/11/01 13:51:50;;;;;;;10.60;9.80;;;12.80;99.90;;;;;;5028675;28;20053;-77
2021/11/01 13:56:54;;;;;;;9.88;9.27;;;12.70;99.90;;;;;;5023777;28;20142;-78
2021/11/01 14:18:34;;;;;;;12.55;11.65;;;13.20;99.90;;;;;;5022035;28;20057;-75
2021/11/01 15:05:09;;;;;;;10.55;9.50;;;12.40;99.90;;;;;;5029762;28;20060;-77
2021/11/01 15:33:48;;;;;;;9.00;8.50;;;12.00;99.90;;;;;;5007294;28;20053;-76
2021/11/01 15:39:37;;;;;;;10.70;9.90;;;12.00;99.90;;;;;;5022877;28;20124;-77
2021/11/01 15:42:39;;;;;;;11.00;10.20;;;12.00;99.90;;;;;;5042295;28;20045;-77
2021/11/01 16:20:33;;;;;;;11.65;9.98;;;11.20;99.90;;;;;;5025009;28;20045;-77
2021/11/01 16:25:39;;;;;;;19.00;12.90;;;11.20;99.90;;;;;;5021121;28;20050;-76
2021/11/01 16:28:06;;;;;;;16.45;13.18;;;11.20;99.90;;;;;;4989091;28;20053;-78
2021/11/01 16:30:34;;;;;;;10.30;9.35;;;11.10;99.90;;;;;;4989903;28;20053;-76
2021/11/01 16:33:06;;;;;;;10.40;9.32;;;11.10;99.90;;;;;;5026685;28;20054;-76
2021/11/01 16:35:56;;;;;;;11.18;9.98;;;11.10;99.90;;;;;;4992368;28;20128;-76
2021/11/01 16:38:25;;;;;;;10.32;9.23;;;11.00;99.90;;;;;;5024829;28;20060;-75
2021/11/01 16:40:53;;;;;;;10.25;9.30;;;10.80;99.90;;;;;;5023110;28;20099;-76
2021/11/01 16:43:24;;;;;;;10.98;9.77;;;10.70;99.90;;;;;;5019847;28;20060;-76
2021/11/01 16:45:54;;;;;;;9.82;8.75;;;10.70;99.90;;;;;;5025653;28;20537;-75
2021/11/01 16:48:23;;;;;;;11.27;10.10;;;10.60;99.90;;;;;;5006737;28;20272;-77
2021/11/01 16:50:54;;;;;;;19.20;13.57;;;10.40;99.90;;;;;;5024583;28;20496;-76
2021/11/01 16:53:22;;;;;;;12.25;9.88;;;10.40;99.90;;;;;;5025527;28;20081;-77
2021/11/01 16:55:50;;;;;;;15.05;11.00;;;10.30;99.90;;;;;;5025057;28;20057;-76
2021/11/01 16:58:29;;;;;;;17.13;12.10;;;10.00;99.90;;;;;;5022701;28;20061;-78
2021/11/01 17:01:06;;;;;;;14.18;10.20;;;9.90;99.90;;;;;;5023896;28;20053;-77
2021/11/01 17:03:45;;;;;;;14.82;11.65;;;9.70;99.90;;;;;;5020730;28;20535;-77
2021/11/01 17:06:27;;;;;;;14.68;11.93;;;9.70;99.90;;;;;;5007178;28;20133;-77
2021/11/01 17:23:11;;;;;;;17.00;14.05;;;9.40;99.90;;;;;;5010515;28;20054;-78
2021/11/01 17:26:24;;;;;;;22.50;11.05;;;9.30;99.90;;;;;;5023454;28;20056;-77
2021/11/01 17:35:03;;;;;;;19.45;10.38;;;9.10;99.90;;;;;;5032509;28;20061;-76
2021/11/01 17:37:04;;;;;;;13.18;8.85;;;9.10;99.90;;;;;;5015827;28;20053;-76
2021/11/01 18:41:20;;;;;;;12.38;5.63;;;9.20;99.90;;;;;;5016374;28;20042;-76
2021/11/01 18:50:47;;;;;;;11.10;6.03;;;9.20;99.90;;;;;;5020599;28;20052;-76
2021/11/01 18:52:12;;;;;;;16.80;5.63;;;9.20;99.90;;;;;;5005938;28;20546;-76
2021/11/01 18:54:52;;;;;;;18.83;6.63;;;9.20;99.90;;;;;;5023250;28;20037;-76
2021/11/01 18:57:27;;;;;;;12.77;5.45;;;9.20;99.90;;;;;;4995951;28;20054;-76
2021/11/01 19:00:02;;;;;;;20.20;6.13;;;9.10;99.90;;;;;;5014861;28;20072;-76
2021/11/01 19:07:53;;;;;;;17.30;7.22;;;9.00;99.90;;;;;;5022793;28;20045;-76
2021/11/01 20:06:16;;;;;;;26.75;12.93;;;8.20;99.90;;;;;;5011014;28;20091;-77
2021/11/01 21:26:58;;;;;;;28.85;13.13;;;6.80;99.90;;;;;;5024301;28;20043;-74
2021/11/01 21:29:31;;;;;;;58.13;31.55;;;6.90;99.90;;;;;;5026455;28;20045;-74
2021/11/01 21:31:58;;;;;;;24.02;13.40;;;6.80;99.90;;;;;;5045418;28;20631;-74
2021/11/01 21:34:42;;;;;;;24.58;13.57;;;6.80;99.90;;;;;;5026088;28;20065;-74
2021/11/01 21:37:09;;;;;;;25.52;13.57;;;6.70;99.90;;;;;;5024317;28;20069;-75
2021/11/01 21:39:36;;;;;;;27.17;13.77;;;6.70;99.90;;;;;;5022526;28;20045;-74
2021/11/01 21:42:04;;;;;;;34.20;13.90;;;6.60;99.90;;;;;;5023893;28;20088;-73
2021/11/01 21:44:35;;;;;;;26.75;14.55;;;6.40;99.90;;;;;;5025344;28;20519;-75
2021/11/01 21:47:02;;;;;;;38.78;21.75;;;6.40;99.90;;;;;;5024915;28;20483;-74
2021/11/01 21:49:29;;;;;;;40.13;19.05;;;6.50;99.90;;;;;;5023628;28;20049;-73
2021/11/01 21:51:57;;;;;;;32.85;18.02;;;6.50;99.90;;;;;;5024474;28;20053;-74
2021/11/01 21:54:30;;;;;;;32.45;15.43;;;6.40;99.90;;;;;;5026153;28;20530;-72
2021/11/01 22:16:46;;;;;;;52.70;23.63;;;6.50;99.90;;;;;;5017541;28;20067;-75
2021/11/01 22:24:52;;;;;;;27.85;14.38;;;6.40;99.90;;;;;;5040492;28;20057;-75
2021/11/01 22:40:55;;;;;;;;;;;6.00;99.90;;;;;;5019277;28;20685;-74
2021/11/01 22:56:44;;;;;;;;;;;6.10;99.90;;;;;;5023577;28;20120;-76
2021/11/01 22:59:13;;;;;;;49.67;20.05;;;6.00;99.90;;;;;;5007041;28;19921;-76
2021/11/01 23:01:42;;;;;;;53.47;21.58;;;6.00;99.90;;;;;;5026938;28;20053;-75
2021/11/01 23:31:42;;;;;;;54.85;22.42;;;6.10;99.90;;;;;;5048307;28;20488;-76
2021/11/01 23:34:10;;;;;;;;;;;6.20;99.90;;;;;;5019676;28;20049;-74
2021/11/01 23:36:38;;;;;;;53.55;20.75;;;6.30;99.90;;;;;;5026947;28;19931;-74
2021/11/01 23:39:09;;;;;;;51.33;21.50;;;6.30;99.90;;;;;;5026870;28;20053;-74
2021/11/01 23:41:43;;;;;;;45.22;20.20;;;6.20;99.90;;;;;;4988550;28;20050;-75
2021/11/01 23:44:10;;;;;;;49.33;21.52;;;6.20;99.90;;;;;;5023704;28;20050;-75
2021/11/01 23:46:38;;;;;;;49.58;20.77;;;6.20;99.90;;;;;;5006920;28;20050;-75
2021/11/01 23:49:05;;;;;;;44.22;18.85;;;6.30;99.90;;;;;;5016565;28;20446;-75
2021/11/01 23:51:36;;;;;;;41.38;19.80;;;6.30;99.90;;;;;;5009483;28;20052;-76
2021/11/01 23:56:49;;;;;;;44.95;19.98;;;6.40;99.90;;;;;;5029340;28;20081;-74
2021/11/01 23:59:16;;;;;;;50.90;20.65;;;6.50;99.90;;;;;;5017497;28;20099;-74
